Airfield :







YOU CAN JOIN US ON...

 
LOGIN :

Register | Disclaimer

   EN    FR    IT 

 









Legend :    VFR   Marginal VFR   IFR   Intensive IFR   Very Intensive IFR
Visi :
Ceiling :
>= 8 km
>= 3000ft
5 to 8 km
1000 to 3000 ft
1500m to 5 km
500 to 1000 ft
800 to 1500m
200 to 500 ft
< 800m
< 200 ft
Symbols :   Thunderstorms  Fog  Heavy snow  Heavy precipitations  Wind > 20 kt







- Airport Elevation : 283 ft
- IATA code : GOH


BGGH - Nuuk

CURRENT METAR :
  • 171750Z 19005KT 9999 FEW005 SCT009 BKN034 10/08 Q1010

EXPIRED METARs :
  • 171650Z 21005KT 180V240 9999 FEW005 SCT008 BKN030 10/09 Q1011
  • 171550Z 22004KT 190V260 9999 FEW005 SCT008 BKN030 10/08 Q1011

TAF TAF BGGH
Valid from the 17 at 18:00 until the 18 at 01:00 UTC


171700Z 1718/1801 17005KT 9999 FEW015 BKN035
TEMPO 1718/1801 21015KT BKN008
BGGL FIR / North America



MET'MAP, your aeronautical weather chart ! - Copyright ORBIFLY December 2007 - Disclaimer

ORBIFLY MET'MAP TEAM :

Programming & Development : Alexandra Zaïnal
Concept & Development : Baudouin d'Aumeries
Co-Development & Prog : Marc-Olivier Méhu
Technical & hardware support : Manuel Goepfert

Contact : metmap@orbifly.com




SOURCES & CREDITS :

   NOAA